Time;durP1;ratioP1;P1;durP2;ratioP2;P2;SDS_P1;SDS_P2;PMS_P1;PMS_P2;Temp;Humidity;BMP_temperature;BMP_pressure;BME280_temperature;BME280_humidity;BME280_pressure;Samples;Min_cycle;Max_cycle;Signal;HPM_P1;HPM_P2
2021/12/12 00:00:34;;;;;;;85.00;37.20;;;;;;;-2.01;81.49;100680.66;103161;1318;108871;-69
2021/12/12 00:03:21;;;;;;;93.80;37.60;;;;;;;-2.05;81.26;100689.77;103790;1318;138845;-68
2021/12/12 00:05:56;;;;;;;101.00;36.80;;;;;;;-2.14;81.27;100695.84;103100;1316;97840;-71
2021/12/12 00:08:29;;;;;;;85.10;37.90;;;;;;;-2.24;81.54;100695.23;104261;1317;138923;-69
2021/12/12 00:11:05;;;;;;;93.40;38.40;;;;;;;-2.27;81.40;100697.38;103492;1317;112764;-69
2021/12/12 00:13:42;;;;;;;95.10;38.00;;;;;;;-2.31;81.57;100697.12;102909;1318;139516;-68
2021/12/12 00:16:15;;;;;;;86.70;37.60;;;;;;;-2.33;81.55;100700.46;103472;1319;108962;-69
2021/12/12 00:18:47;;;;;;;93.50;37.50;;;;;;;-2.31;81.77;100707.33;103420;1317;97903;-68
2021/12/12 00:21:23;;;;;;;118.10;37.50;;;;;;;-2.30;81.77;100709.40;104026;1318;138668;-69
2021/12/12 00:23:56;;;;;;;90.60;38.50;;;;;;;-2.31;82.00;100709.02;104412;1314;112678;-68
2021/12/12 00:26:28;;;;;;;103.30;38.70;;;;;;;-2.31;81.84;100702.56;104298;1318;138652;-69
2021/12/12 00:29:01;;;;;;;110.30;40.10;;;;;;;-2.31;82.05;100696.59;103430;1318;108905;-69
2021/12/12 00:31:33;;;;;;;89.80;37.50;;;;;;;-2.33;82.28;100696.36;103034;1318;138640;-67
2021/12/12 00:34:06;;;;;;;91.10;37.40;;;;;;;-2.33;82.41;100695.00;103019;1317;97813;-70
2021/12/12 00:36:40;;;;;;;79.50;35.20;;;;;;;-2.30;82.33;100697.14;102937;1318;112335;-67
2021/12/12 00:39:17;;;;;;;80.60;34.60;;;;;;;-2.33;81.94;100697.72;102990;1318;140670;-70
2021/12/12 00:41:56;;;;;;;69.50;34.90;;;;;;;-2.36;81.85;100695.73;103106;1317;108382;-70
2021/12/12 00:44:29;;;;;;;79.70;35.60;;;;;;;-2.39;82.05;100703.85;102890;1318;138978;-69
2021/12/12 00:47:05;;;;;;;86.00;36.40;;;;;;;-2.43;82.15;100701.20;103017;1318;97825;-69
2021/12/12 00:49:38;;;;;;;89.30;37.80;;;;;;;-2.42;82.43;100704.64;102841;1321;139019;-70
2021/12/12 00:52:16;;;;;;;99.30;40.70;;;;;;;-2.39;82.21;100704.02;102992;1320;109291;-69
2021/12/12 00:54:51;;;;;;;95.50;40.80;;;;;;;-2.38;82.09;100706.43;102994;1321;108966;-69
2021/12/12 00:57:24;;;;;;;116.50;42.50;;;;;;;-2.38;82.23;100707.29;104069;1320;139438;-69
2021/12/12 00:59:56;;;;;;;111.30;41.70;;;;;;;-2.39;82.05;100711.17;103446;1321;97901;-69
2021/12/12 01:02:30;;;;;;;135.10;45.30;;;;;;;-2.46;81.86;100712.20;102858;1320;138103;-69
2021/12/12 01:05:06;;;;;;;119.20;45.00;;;;;;;-2.50;81.84;100715.16;102977;1318;108818;-69
2021/12/12 01:07:41;;;;;;;100.40;45.40;;;;;;;-2.57;81.95;100716.96;102792;1321;138932;-70
2021/12/12 01:10:19;;;;;;;107.50;45.90;;;;;;;-2.63;82.09;100719.88;102918;1320;97923;-68
2021/12/12 01:12:53;;;;;;;111.10;47.50;;;;;;;-2.67;82.11;100720.11;103322;1318;97898;-68
2021/12/12 01:15:29;;;;;;;113.20;47.70;;;;;;;-2.68;82.31;100714.95;102735;1318;138843;-68
2021/12/12 01:18:07;;;;;;;106.90;46.70;;;;;;;-2.66;82.47;100713.84;102975;1321;109000;-68
2021/12/12 01:20:42;;;;;;;112.30;47.10;;;;;;;-2.65;82.45;100705.02;102894;1321;139028;-68
2021/12/12 01:23:26;;;;;;;95.70;44.50;;;;;;;-2.61;82.59;100705.13;103017;1320;97837;-69
2021/12/12 01:25:59;;;;;;;98.60;44.10;;;;;;;-2.59;82.54;100707.05;102862;1321;139131;-68
2021/12/12 01:28:36;;;;;;;90.40;43.60;;;;;;;-2.53;82.44;100703.98;102928;1321;112171;-69
2021/12/12 01:31:11;;;;;;;97.40;44.30;;;;;;;-2.48;82.49;100707.04;103007;1321;109001;-70
2021/12/12 01:33:43;;;;;;;112.50;44.20;;;;;;;-2.42;82.53;100704.63;102949;1318;138268;-69
2021/12/12 01:36:26;;;;;;;109.80;44.90;;;;;;;-2.43;82.26;100704.77;103068;1318;98012;-69
2021/12/12 01:39:00;;;;;;;107.70;46.90;;;;;;;-2.42;82.32;100704.45;102930;1320;138395;-69
2021/12/12 01:41:35;;;;;;;100.90;46.80;;;;;;;-2.37;82.60;100705.27;102972;1321;112180;-71
2021/12/12 01:44:14;;;;;;;99.50;43.10;;;;;;;-2.33;82.54;100703.15;102857;1321;138496;-68
2021/12/12 01:46:52;;;;;;;102.50;45.30;;;;;;;-2.36;82.50;100704.45;103043;1320;109168;-69
2021/12/12 01:49:30;;;;;;;110.10;41.30;;;;;;;-2.38;82.33;100711.05;102911;1321;140224;-68
2021/12/12 01:52:04;;;;;;;113.60;44.70;;;;;;;-2.38;82.35;100716.81;102951;1318;97900;-68
2021/12/12 01:54:44;;;;;;;108.80;43.40;;;;;;;-2.36;82.31;100713.12;103066;1315;113251;-68
2021/12/12 01:57:20;;;;;;;104.50;46.10;;;;;;;-2.36;82.26;100706.13;102868;1320;139044;-68
2021/12/12 01:59:53;;;;;;;114.30;44.20;;;;;;;-2.30;82.36;100702.91;103139;1318;108483;-68
2021/12/12 02:02:28;;;;;;;101.70;39.70;;;;;;;-2.25;82.69;100704.77;102954;1317;138587;-68
2021/12/12 02:05:07;;;;;;;113.60;40.90;;;;;;;-2.18;82.46;100708.52;103054;1321;97856;-68
2021/12/12 02:07:44;;;;;;;113.40;40.30;;;;;;;-2.13;82.67;100707.82;102891;1319;138773;-68
2021/12/12 02:10:20;;;;;;;119.40;41.50;;;;;;;-2.14;82.63;100705.40;103074;1317;108824;-68
2021/12/12 02:12:51;;;;;;;;;;;;;;;-2.16;82.56;100700.73;104372;1317;109041;-69
2021/12/12 02:15:23;;;;;;;91.70;37.60;;;;;;;-2.19;82.51;100706.45;104296;1317;124953;-69
2021/12/12 02:17:55;;;;;;;92.30;37.70;;;;;;;-2.23;82.22;100708.89;103236;1318;97956;-69
2021/12/12 02:20:35;;;;;;;93.80;40.10;;;;;;;-2.21;82.62;100712.69;102917;1321;138860;-68
2021/12/12 02:23:16;;;;;;;94.20;35.10;;;;;;;-2.20;82.24;100716.63;103043;1318;108899;-69
2021/12/12 02:37:13;;;;;;;112.80;37.20;;;;;;;-2.18;82.81;100722.14;103118;1318;109078;-69
2021/12/12 02:39:45;;;;;;;101.70;33.20;;;;;;;-2.16;82.74;100727.30;102892;1318;139202;-69
2021/12/12 02:42:21;;;;;;;88.00;35.30;;;;;;;-2.17;82.94;100729.65;102896;1321;97870;-70
2021/12/12 02:44:58;;;;;;;62.80;25.00;;;;;;;-2.16;82.98;100734.29;102916;1321;139440;-70
2021/12/12 02:47:34;;;;;;;75.00;32.80;;;;;;;-2.11;83.25;100736.33;103651;1315;110556;-69
2021/12/12 02:50:14;;;;;;;90.30;33.50;;;;;;;-2.05;83.28;100737.64;103442;1321;139344;-70
2021/12/12 02:52:54;;;;;;;87.10;34.60;;;;;;;-2.03;82.94;100740.93;103639;1321;108877;-70
2021/12/12 02:55:32;;;;;;;74.60;31.60;;;;;;;-2.01;83.06;100746.95;103338;1321;138993;-69
2021/12/12 02:58:06;;;;;;;81.30;34.40;;;;;;;-1.98;83.01;100744.63;103511;1320;97683;-70
2021/12/12 03:03:42;;;;;;;92.60;34.70;;;;;;;-1.88;82.91;100742.71;101985;1321;138111;-69
2021/12/12 03:06:21;;;;;;;101.10;35.50;;;;;;;-1.90;83.08;100746.42;103097;1317;108986;-68
2021/12/12 03:08:58;;;;;;;102.90;34.40;;;;;;;-1.90;82.92;100744.70;103012;1316;138496;-68
2021/12/12 03:11:31;;;;;;;89.10;35.30;;;;;;;-1.89;82.67;100748.83;103095;1317;97858;-68
2021/12/12 03:14:04;;;;;;;92.20;36.90;;;;;;;-1.91;82.92;100751.48;102966;1317;138978;-69
2021/12/12 03:16:37;;;;;;;93.00;36.00;;;;;;;-1.91;83.02;100754.06;103095;1318;108652;-68
2021/12/12 03:19:09;;;;;;;90.90;37.50;;;;;;;-1.88;82.95;100751.06;103094;1317;108893;-69
2021/12/12 03:21:45;;;;;;;97.40;38.30;;;;;;;-1.89;82.84;100749.66;102898;1316;138883;-68
2021/12/12 03:24:21;;;;;;;84.30;36.50;;;;;;;-1.92;82.91;100745.34;103249;1317;97952;-69
2021/12/12 03:26:57;;;;;;;88.90;38.60;;;;;;;-1.92;83.19;100740.92;102969;1320;138398;-68
2021/12/12 03:29:30;;;;;;;100.40;38.90;;;;;;;-1.88;83.52;100743.22;103066;1321;108824;-68
2021/12/12 03:32:08;;;;;;;96.40;41.10;;;;;;;-1.89;82.72;100747.44;103324;1318;138530;-68
2021/12/12 03:34:43;;;;;;;98.30;41.20;;;;;;;-1.97;82.88;100754.24;104398;1317;99097;-70
2021/12/12 03:37:17;;;;;;;99.50;41.50;;;;;;;-1.98;83.15;100748.56;103547;1324;95989;-69
2021/12/12 03:39:52;;;;;;;96.60;40.30;;;;;;;-1.98;82.74;100749.58;104269;1318;138339;-68
2021/12/12 03:42:27;;;;;;;107.90;43.20;;;;;;;-2.00;83.25;100747.67;103339;1316;109648;-70
2021/12/12 03:45:01;;;;;;;91.90;39.80;;;;;;;-2.00;83.06;100748.52;103765;1317;139470;-67
2021/12/12 03:47:40;;;;;;;91.30;38.40;;;;;;;-1.98;83.14;100753.86;103620;1318;95729;-70
2021/12/12 03:50:16;;;;;;;92.70;39.20;;;;;;;-1.93;83.18;100753.48;102919;1324;140447;-70
2021/12/12 03:52:49;;;;;;;92.30;38.10;;;;;;;-1.92;83.03;100753.20;103068;1318;112420;-70
2021/12/12 03:55:23;;;;;;;95.60;40.40;;;;;;;-1.91;82.96;100752.17;103067;1318;108976;-68
2021/12/12 03:57:55;;;;;;;88.60;37.80;;;;;;;-1.87;83.23;100753.30;102937;1318;138239;-70
2021/12/12 04:00:31;;;;;;;92.70;39.00;;;;;;;-1.82;83.26;100752.91;103051;1318;97866;-67
2021/12/12 04:03:03;;;;;;;95.70;38.90;;;;;;;-1.77;83.18;100755.27;103825;1317;138013;-69
2021/12/12 04:05:36;;;;;;;97.50;38.00;;;;;;;-1.74;83.41;100762.51;104367;1322;111611;-68
2021/12/12 04:08:08;;;;;;;99.90;39.40;;;;;;;-1.73;83.26;100760.13;104293;1318;139160;-68
2021/12/12 04:10:41;;;;;;;90.10;37.20;;;;;;;-1.74;82.88;100760.80;104287;1318;109430;-68
2021/12/12 04:13:13;;;;;;;87.90;37.80;;;;;;;-1.76;83.12;100767.23;103147;1318;97906;-67
2021/12/12 04:15:49;;;;;;;82.00;36.00;;;;;;;-1.72;83.17;100772.77;102962;1319;138907;-68
2021/12/12 04:18:25;;;;;;;80.40;33.20;;;;;;;-1.67;83.33;100779.88;104449;1318;112532;-69
2021/12/12 04:20:57;;;;;;;88.50;36.60;;;;;;;-1.66;83.14;100780.92;104186;1318;138967;-68
2021/12/12 04:23:29;;;;;;;79.40;34.50;;;;;;;-1.62;83.04;100781.20;103576;1319;109147;-70
2021/12/12 04:26:13;;;;;;;84.10;35.70;;;;;;;-1.58;82.97;100786.11;103204;1319;140075;-69
2021/12/12 04:28:54;;;;;;;91.20;37.70;;;;;;;-1.55;82.95;100789.77;103832;1317;97827;-69
2021/12/12 04:31:27;;;;;;;84.70;37.30;;;;;;;-1.55;82.87;100794.70;103057;1318;112622;-69
2021/12/12 04:34:00;;;;;;;88.30;37.90;;;;;;;-1.57;82.81;100805.75;102989;1317;139665;-68
2021/12/12 04:36:35;;;;;;;90.90;39.80;;;;;;;-1.58;82.99;100812.52;103117;1322;107915;-68
2021/12/12 04:39:11;;;;;;;90.40;40.00;;;;;;;-1.58;82.82;100818.00;103191;1318;138167;-69
2021/12/12 04:41:44;;;;;;;83.70;38.10;;;;;;;-1.61;82.98;100821.66;103113;1317;97903;-70
2021/12/12 04:44:22;;;;;;;79.90;35.90;;;;;;;-1.60;82.98;100820.34;102985;1317;139053;-69
2021/12/12 04:49:56;;;;;;;73.30;35.70;;;;;;;-1.62;82.80;100826.07;103102;1322;139088;-67
2021/12/12 04:52:33;;;;;;;81.00;38.10;;;;;;;-1.58;82.82;100831.28;104357;1317;95847;-69
2021/12/12 04:55:10;;;;;;;66.90;33.80;;;;;;;-1.55;82.93;100835.47;104362;1318;96257;-68
2021/12/12 04:57:46;;;;;;;75.30;36.40;;;;;;;-1.52;82.88;100835.19;104150;1321;138848;-69
2021/12/12 05:00:21;;;;;;;80.80;39.00;;;;;;;-1.50;82.84;100839.15;103155;1318;109246;-69
2021/12/12 05:02:59;;;;;;;74.70;38.60;;;;;;;-1.52;82.64;100840.48;102932;1318;138422;-68
2021/12/12 05:05:37;;;;;;;78.90;39.30;;;;;;;-1.52;82.73;100838.60;102948;1317;97871;-68
2021/12/12 05:08:14;;;;;;;87.90;40.30;;;;;;;-1.52;82.91;100836.05;102944;1317;138115;-68
2021/12/12 05:10:54;;;;;;;86.50;40.40;;;;;;;-1.50;82.86;100834.73;104369;1318;112679;-69
2021/12/12 05:13:32;;;;;;;102.40;44.60;;;;;;;-1.50;83.06;100838.64;103461;1317;108976;-68
2021/12/12 05:16:11;;;;;;;86.30;38.80;;;;;;;-1.51;82.84;100841.88;102875;1318;138795;-68
2021/12/12 05:18:50;;;;;;;85.10;39.70;;;;;;;-1.51;82.89;100842.20;103007;1318;97873;-68
2021/12/12 05:21:28;;;;;;;85.70;40.30;;;;;;;-1.49;82.93;100846.18;102955;1318;138655;-68
2021/12/12 05:24:05;;;;;;;89.20;42.40;;;;;;;-1.42;83.19;100848.23;103078;1318;113477;-67
2021/12/12 05:26:41;;;;;;;89.90;42.20;;;;;;;-1.39;82.97;100845.44;102985;1318;138236;-68
2021/12/12 05:29:18;;;;;;;92.70;42.20;;;;;;;-1.39;82.45;100841.48;103039;1318;108914;-68
2021/12/12 05:31:53;;;;;;;98.40;44.60;;;;;;;-1.42;82.81;100847.23;102964;1318;138313;-68
2021/12/12 05:34:30;;;;;;;92.00;44.10;;;;;;;-1.41;82.98;100849.65;102997;1321;97849;-69
2021/12/12 05:37:04;;;;;;;99.40;44.50;;;;;;;-1.40;82.88;100852.06;102988;1321;111968;-67
2021/12/12 05:39:36;;;;;;;91.00;41.50;;;;;;;-1.43;82.64;100855.89;104277;1318;138087;-68
2021/12/12 05:42:09;;;;;;;95.20;44.40;;;;;;;-1.46;82.74;100857.86;104396;1318;109097;-68
2021/12/12 05:44:42;;;;;;;99.20;45.20;;;;;;;-1.46;82.55;100852.58;104115;1318;139619;-69
2021/12/12 05:47:15;;;;;;;89.80;41.50;;;;;;;-1.44;82.74;100856.05;103827;1321;95996;-68
2021/12/12 05:49:47;;;;;;;88.70;40.80;;;;;;;-1.39;82.84;100861.13;102956;1317;138955;-68
2021/12/12 05:52:22;;;;;;;95.60;43.60;;;;;;;-1.30;82.97;100862.70;103155;1317;109118;-70
2021/12/12 05:54:55;;;;;;;92.80;43.30;;;;;;;-1.23;82.54;100867.00;103052;1318;106639;-70
2021/12/12 05:57:28;;;;;;;99.70;46.10;;;;;;;-1.18;82.62;100875.96;103018;1318;138287;-69
2021/12/12 06:00:00;;;;;;;92.40;42.30;;;;;;;-1.17;82.34;100880.44;103563;1321;97856;-69
2021/12/12 06:02:36;;;;;;;93.40;44.10;;;;;;;-1.18;82.27;100886.05;102859;1318;138039;-69
2021/12/12 06:05:10;;;;;;;97.90;44.90;;;;;;;-1.18;82.27;100883.49;103055;1318;109085;-70
2021/12/12 06:07:42;;;;;;;125.90;52.50;;;;;;;-1.23;82.46;100883.55;103227;1318;138438;-69
2021/12/12 06:10:17;;;;;;;122.10;52.00;;;;;;;-1.25;82.08;100891.02;103047;1318;97858;-69
2021/12/12 06:12:50;;;;;;;137.40;52.50;;;;;;;-1.29;82.15;100899.77;103783;1318;97871;-69
2021/12/12 06:15:27;;;;;;;142.10;54.60;;;;;;;-1.33;82.31;100898.63;102956;1318;140819;-70
2021/12/12 06:18:00;;;;;;;124.20;50.80;;;;;;;-1.34;82.46;100903.04;102976;1319;109510;-70
2021/12/12 06:20:33;;;;;;;133.80;52.20;;;;;;;-1.35;82.22;100899.61;103054;1318;139019;-69
2021/12/12 06:23:05;;;;;;;158.00;55.20;;;;;;;-1.34;82.22;100899.79;103062;1317;97973;-69
2021/12/12 06:25:39;;;;;;;144.20;56.70;;;;;;;-1.35;82.32;100905.05;103333;1317;98057;-69
2021/12/12 06:28:13;;;;;;;153.10;57.00;;;;;;;-1.37;82.34;100908.27;102972;1318;137940;-68
2021/12/12 06:30:46;;;;;;;179.00;58.70;;;;;;;-1.38;82.40;100903.97;103853;1318;108985;-69
2021/12/12 06:33:19;;;;;;;158.50;59.00;;;;;;;-1.42;82.29;100904.55;102974;1317;138276;-69
2021/12/12 06:35:52;;;;;;;157.40;55.10;;;;;;;-1.42;82.49;100905.75;102984;1318;111706;-69
2021/12/12 06:38:25;;;;;;;168.00;59.40;;;;;;;-1.38;82.73;100907.38;103610;1318;138482;-70
2021/12/12 06:40:58;;;;;;;159.60;54.30;;;;;;;-1.35;82.55;100904.89;102986;1316;112850;-69
2021/12/12 06:43:31;;;;;;;176.30;60.50;;;;;;;-1.46;82.18;100906.11;103127;1319;108194;-69
2021/12/12 06:46:07;;;;;;;148.40;53.70;;;;;;;-1.51;82.12;100906.84;102956;1318;138960;-71
2021/12/12 06:48:40;;;;;;;154.00;56.60;;;;;;;-1.58;82.32;100909.23;103041;1319;97844;-70
2021/12/12 06:51:14;;;;;;;154.50;56.40;;;;;;;-1.65;82.20;100914.13;102999;1322;139214;-69
2021/12/12 06:53:49;;;;;;;140.80;54.20;;;;;;;-1.72;82.24;100915.14;103137;1317;112569;-69
2021/12/12 06:56:22;;;;;;;135.90;52.50;;;;;;;-1.72;82.33;100919.41;103032;1318;139720;-69
2021/12/12 06:58:57;;;;;;;139.30;55.30;;;;;;;-1.73;82.55;100917.15;103008;1318;108979;-69
2021/12/12 07:01:35;;;;;;;168.40;57.50;;;;;;;-1.73;82.66;100912.71;103065;1318;97866;-69
2021/12/12 07:04:11;;;;;;;138.00;52.80;;;;;;;-1.75;82.70;100921.35;102946;1317;138334;-69
2021/12/12 07:06:44;;;;;;;141.30;52.60;;;;;;;-1.72;83.13;100918.89;103116;1317;112585;-69
2021/12/12 07:09:16;;;;;;;137.00;53.70;;;;;;;-1.74;82.56;100928.02;103037;1318;138565;-69
2021/12/12 07:11:49;;;;;;;129.90;50.70;;;;;;;-1.77;82.97;100928.98;103090;1317;109044;-69
2021/12/12 07:14:21;;;;;;;132.90;52.90;;;;;;;-1.74;82.83;100929.90;102980;1318;139394;-70
2021/12/12 07:16:55;;;;;;;127.30;47.20;;;;;;;-1.75;82.74;100933.80;102951;1318;98400;-69
2021/12/12 07:19:29;;;;;;;145.40;53.80;;;;;;;-1.76;82.53;100944.68;103054;1318;113627;-70
2021/12/12 07:22:01;;;;;;;152.30;57.60;;;;;;;-1.79;82.67;100952.29;103151;1317;139287;-70
2021/12/12 07:24:34;;;;;;;151.80;58.90;;;;;;;-1.75;82.81;100949.98;103015;1317;108879;-70
2021/12/12 07:27:07;;;;;;;159.10;57.70;;;;;;;-1.71;82.52;100952.82;102937;1317;138622;-69
2021/12/12 07:29:39;;;;;;;159.90;59.20;;;;;;;-1.76;82.27;100949.29;104243;1318;96138;-70
2021/12/12 07:32:12;;;;;;;145.80;56.00;;;;;;;-1.76;82.55;100954.23;104157;1318;138175;-70
2021/12/12 07:34:44;;;;;;;162.10;56.40;;;;;;;-1.74;82.55;100956.50;104091;1318;107610;-70
2021/12/12 07:37:17;;;;;;;152.10;57.90;;;;;;;-1.72;82.72;100953.48;103273;1324;108905;-70
2021/12/12 07:39:50;;;;;;;161.60;58.70;;;;;;;-1.72;82.67;100956.03;104110;1318;138292;-70
2021/12/12 07:42:22;;;;;;;147.80;59.10;;;;;;;-1.74;82.29;100956.84;104418;1318;96028;-70
2021/12/12 07:44:55;;;;;;;150.10;58.50;;;;;;;-1.77;81.92;100963.57;103865;1318;138197;-69
2021/12/12 07:47:28;;;;;;;162.60;63.70;;;;;;;-1.80;82.24;100964.65;103081;1317;109077;-70
2021/12/12 07:50:04;;;;;;;162.20;62.60;;;;;;;-1.81;82.14;100969.24;102924;1318;139185;-69
2021/12/12 07:52:36;;;;;;;178.00;67.30;;;;;;;-1.79;82.06;100972.73;103032;1317;97894;-69
2021/12/12 07:55:10;;;;;;;183.40;71.90;;;;;;;-1.75;82.10;100974.55;103083;1318;98025;-68
2021/12/12 07:57:42;;;;;;;193.70;75.50;;;;;;;-1.71;82.32;100979.09;103131;1318;138640;-68
2021/12/12 08:00:21;;;;;;;202.60;79.90;;;;;;;-1.62;82.49;100985.50;103010;1318;109463;-70
2021/12/12 08:02:56;;;;;;;207.70;78.40;;;;;;;-1.57;82.25;100986.50;103847;1317;139021;-70
2021/12/12 08:05:31;;;;;;;215.90;80.80;;;;;;;-1.55;82.02;100981.43;104415;1317;96091;-70
2021/12/12 08:08:06;;;;;;;204.50;80.00;;;;;;;-1.55;81.52;100981.10;104138;1317;138694;-69
2021/12/12 08:10:41;;;;;;;238.10;87.50;;;;;;;-1.58;81.58;100983.91;104385;1317;112548;-70
2021/12/12 08:13:15;;;;;;;259.30;99.00;;;;;;;-1.60;81.38;100988.48;104394;1321;107855;-69
2021/12/12 08:15:47;;;;;;;269.30;99.20;;;;;;;-1.58;81.52;100988.86;104270;1318;138445;-69
2021/12/12 08:18:21;;;;;;;271.70;98.70;;;;;;;-1.60;81.66;100998.19;104012;1318;97176;-69
2021/12/12 08:20:55;;;;;;;268.80;100.90;;;;;;;-1.60;81.62;101000.41;102936;1317;139224;-69
2021/12/12 08:23:28;;;;;;;236.70;93.90;;;;;;;-1.57;81.53;101002.20;103067;1318;112194;-69
2021/12/12 08:26:02;;;;;;;239.10;95.20;;;;;;;-1.57;81.42;101006.44;102983;1318;139312;-68
2021/12/12 08:28:34;;;;;;;259.90;98.90;;;;;;;-1.58;81.48;101003.70;103006;1317;108747;-69
2021/12/12 08:31:08;;;;;;;262.40;104.10;;;;;;;-1.57;81.18;101005.61;102974;1318;98347;-70
2021/12/12 08:33:40;;;;;;;259.00;102.90;;;;;;;-1.49;81.60;101002.91;103018;1318;138968;-70
2021/12/12 08:36:15;;;;;;;268.10;103.60;;;;;;;-1.47;81.52;101007.40;103096;1318;111256;-69
2021/12/12 08:38:47;;;;;;;274.60;108.00;;;;;;;-1.51;81.14;101012.74;102951;1318;138540;-70
2021/12/12 08:41:20;;;;;;;265.80;105.10;;;;;;;-1.57;81.24;101016.01;103088;1318;108828;-70
2021/12/12 08:43:52;;;;;;;268.20;107.30;;;;;;;-1.68;80.64;101020.59;102989;1318;138598;-68
2021/12/12 08:46:26;;;;;;;280.90;105.50;;;;;;;-1.76;80.77;101019.69;103094;1318;99469;-69
2021/12/12 08:48:59;;;;;;;252.00;98.40;;;;;;;-1.84;81.11;101015.34;103102;1317;112625;-68
2021/12/12 08:51:36;;;;;;;252.30;101.70;;;;;;;-1.91;81.16;101018.92;102984;1317;139161;-69
2021/12/12 08:54:15;;;;;;;243.80;97.80;;;;;;;-1.87;81.05;101024.81;103026;1317;109368;-70
2021/12/12 08:56:50;;;;;;;238.80;98.40;;;;;;;-1.89;81.37;101021.67;102925;1318;138966;-70
2021/12/12 08:59:27;;;;;;;237.90;94.90;;;;;;;-1.92;81.16;101018.71;103122;1318;97899;-69
2021/12/12 09:01:59;;;;;;;;;;;;;;;-1.88;81.00;101022.57;102894;1318;140417;-69
2021/12/12 09:04:36;;;;;;;243.70;95.80;;;;;;;-1.90;80.90;101021.50;103528;1318;109065;-70
2021/12/12 09:07:14;;;;;;;242.40;94.30;;;;;;;-1.96;80.92;101010.90;102991;1318;107370;-69
2021/12/12 09:09:50;;;;;;;237.20;99.40;;;;;;;-1.99;81.10;101009.77;102918;1318;138913;-69
2021/12/12 09:12:28;;;;;;;238.50;98.90;;;;;;;-2.01;81.00;101013.45;103076;1317;97860;-69
2021/12/12 09:15:09;;;;;;;249.90;100.80;;;;;;;-2.10;80.98;101013.04;103330;1317;138236;-70
2021/12/12 09:17:46;;;;;;;243.20;98.20;;;;;;;-2.17;80.90;101009.91;103031;1318;109179;-69
2021/12/12 09:20:23;;;;;;;236.00;91.20;;;;;;;-2.27;80.73;101008.57;103107;1317;108895;-71
2021/12/12 09:23:02;;;;;;;214.10;88.50;;;;;;;-2.41;80.45;101006.77;102853;1318;140060;-70
2021/12/12 09:25:42;;;;;;;219.80;89.40;;;;;;;-2.47;81.35;101007.27;102881;1320;97848;-70
2021/12/12 09:28:23;;;;;;;213.90;81.70;;;;;;;-2.47;81.14;101007.08;102924;1321;110652;-70
2021/12/12 09:30:58;;;;;;;204.30;82.70;;;;;;;-2.44;81.32;101009.05;102884;1317;139136;-70
2021/12/12 09:33:33;;;;;;;197.30;79.80;;;;;;;-2.43;81.41;101004.98;102930;1318;109047;-69
2021/12/12 09:36:11;;;;;;;212.60;84.40;;;;;;;-2.38;81.13;101002.59;102821;1318;138267;-70
2021/12/12 09:38:48;;;;;;;193.70;77.80;;;;;;;-2.35;81.26;101001.48;102991;1322;97896;-69
2021/12/12 09:41:42;;;;;;;172.60;67.70;;;;;;;-2.37;81.07;101001.59;102959;1324;138398;-68
2021/12/12 09:44:49;;;;;;;172.20;68.30;;;;;;;-2.48;80.98;100996.85;103146;1321;108792;-68
2021/12/12 09:47:58;;;;;;;207.80;71.90;;;;;;;-2.52;80.89;100996.70;102929;1318;138700;-68
2021/12/12 09:53:53;;;;;;;170.60;66.90;;;;;;;-2.58;81.10;100984.59;102867;1324;138200;-68
2021/12/12 09:56:35;;;;;;;173.30;68.90;;;;;;;-2.56;81.13;100982.60;103026;1319;112691;-68
2021/12/12 09:59:12;;;;;;;161.50;64.40;;;;;;;-2.60;81.08;100977.52;102872;1321;139116;-68
2021/12/12 10:01:54;;;;;;;161.40;66.10;;;;;;;-2.65;81.25;100973.48;102931;1321;109110;-69
2021/12/12 10:04:30;;;;;;;144.30;60.00;;;;;;;-2.70;81.21;100970.89;102976;1322;98460;-68
2021/12/12 10:07:11;;;;;;;145.50;59.90;;;;;;;-2.65;81.34;100977.05;102931;1321;138206;-68
2021/12/12 10:09:48;;;;;;;126.30;54.60;;;;;;;-2.57;81.59;100979.84;103856;1320;111415;-69
2021/12/12 10:12:23;;;;;;;135.60;58.10;;;;;;;-2.57;81.42;100977.47;102910;1319;138400;-68
2021/12/12 10:15:09;;;;;;;101.50;43.20;;;;;;;-2.59;81.19;100976.55;102926;1319;109208;-68
2021/12/12 10:17:45;;;;;;;136.50;58.80;;;;;;;-2.54;81.45;100970.40;104208;1320;138311;-68
2021/12/12 10:20:24;;;;;;;146.60;60.20;;;;;;;-2.54;81.11;100971.08;104244;1321;95948;-68
2021/12/12 10:23:12;;;;;;;176.30;60.70;;;;;;;-2.54;81.29;100968.52;104163;1320;138496;-68
2021/12/12 10:25:52;;;;;;;172.50;66.20;;;;;;;-2.57;81.05;100961.27;103371;1322;109100;-69
2021/12/12 10:28:31;;;;;;;164.20;62.50;;;;;;;-2.57;81.23;100959.74;104265;1319;109058;-70
2021/12/12 10:31:09;;;;;;;140.50;58.60;;;;;;;-2.61;80.99;100952.98;103983;1320;139008;-69
2021/12/12 10:33:48;;;;;;;143.70;59.00;;;;;;;-2.66;81.19;100953.53;103437;1318;97889;-69
2021/12/12 10:36:24;;;;;;;135.40;57.60;;;;;;;-2.66;81.01;100956.39;102861;1321;138868;-69
2021/12/12 10:39:02;;;;;;;139.50;57.60;;;;;;;-2.65;81.22;100966.83;102971;1320;109133;-70
2021/12/12 10:41:39;;;;;;;141.90;60.70;;;;;;;-2.59;81.67;100968.20;102882;1321;139188;-69
2021/12/12 10:44:17;;;;;;;144.30;59.60;;;;;;;-2.51;81.60;100967.80;102968;1321;98006;-71
2021/12/12 10:46:56;;;;;;;149.00;59.40;;;;;;;-2.50;81.73;100970.55;102927;1321;138340;-71
2021/12/12 10:49:36;;;;;;;146.50;60.10;;;;;;;-2.47;81.59;100970.98;102974;1320;112130;-69
2021/12/12 10:52:12;;;;;;;154.50;60.90;;;;;;;-2.44;81.84;100964.61;102921;1321;108919;-69
2021/12/12 10:54:54;;;;;;;148.40;59.10;;;;;;;-2.38;81.66;100968.35;102850;1321;138341;-69
2021/12/12 10:57:29;;;;;;;145.60;58.70;;;;;;;-2.34;81.57;100974.42;103003;1318;97885;-70
2021/12/12 11:00:10;;;;;;;148.00;60.40;;;;;;;-2.34;81.37;100979.89;102885;1321;138151;-70
2021/12/12 11:02:50;;;;;;;149.50;59.40;;;;;;;-2.37;81.35;100973.51;104321;1318;111412;-69
2021/12/12 11:05:27;;;;;;;153.90;62.00;;;;;;;-2.36;81.52;100983.40;104185;1321;139611;-70
2021/12/12 11:08:07;;;;;;;142.10;55.90;;;;;;;-2.35;81.30;100979.84;103408;1324;109124;-70
2021/12/12 11:11:01;;;;;;;140.30;56.70;;;;;;;-2.29;81.40;100988.73;103821;1319;139409;-69
2021/12/12 11:13:38;;;;;;;145.50;56.20;;;;;;;-2.24;81.64;100983.80;103034;1320;97871;-69
2021/12/12 11:16:16;;;;;;;144.10;57.30;;;;;;;-2.25;81.45;100986.31;104302;1318;112686;-69
2021/12/12 11:18:55;;;;;;;144.30;58.20;;;;;;;-2.22;81.40;100977.73;103027;1319;138414;-68
2021/12/12 11:21:32;;;;;;;151.10;58.80;;;;;;;-2.22;81.37;100981.64;103159;1319;109919;-70
2021/12/12 11:24:11;;;;;;;153.00;56.80;;;;;;;-2.22;81.35;100977.56;102864;1320;139192;-70
2021/12/12 11:26:48;;;;;;;150.20;56.20;;;;;;;-2.27;81.40;100973.98;102998;1318;97818;-70
2021/12/12 11:29:28;;;;;;;148.90;57.60;;;;;;;-2.31;81.41;100970.31;102895;1320;138305;-70
2021/12/12 11:32:05;;;;;;;152.50;55.60;;;;;;;-2.31;81.79;100968.24;103166;1320;109613;-70
2021/12/12 11:34:57;;;;;;;144.70;56.00;;;;;;;-2.27;82.06;100968.20;104165;1320;140687;-68
2021/12/12 11:37:37;;;;;;;145.10;55.80;;;;;;;-2.26;82.06;100963.30;103176;1321;97923;-68
2021/12/12 11:40:19;;;;;;;151.40;56.70;;;;;;;-2.19;82.19;100964.70;102954;1321;98217;-70
2021/12/12 11:42:57;;;;;;;145.30;57.10;;;;;;;-2.13;82.15;100966.27;102919;1321;139056;-67
2021/12/12 11:45:38;;;;;;;140.30;56.70;;;;;;;-2.07;82.00;100968.65;102952;1321;108966;-69
2021/12/12 11:48:20;;;;;;;145.40;56.70;;;;;;;-2.02;82.10;100972.54;102918;1322;138374;-70
2021/12/12 11:51:02;;;;;;;147.90;54.50;;;;;;;-1.95;82.14;100972.42;102941;1321;97886;-68